createdAt,value
2022-12-01T00:01:30.141Z,32.43
2022-12-01T00:03:58.129Z,32.47
2022-12-01T00:06:27.456Z,32.37
2022-12-01T00:09:17.984Z,29.63
2022-12-01T00:11:47.717Z,35.67
2022-12-01T00:14:16.335Z,35.50
2022-12-01T00:16:44.914Z,33.13
2022-12-01T00:19:13.030Z,35.43
2022-12-01T00:21:42.435Z,39.23
2022-12-01T00:24:11.619Z,35.17
2022-12-01T00:26:40.232Z,32.13
2022-12-01T00:29:08.194Z,34.53
2022-12-01T00:31:36.450Z,33.93
2022-12-01T00:34:08.238Z,36.37
2022-12-01T00:36:39.419Z,35.83
2022-12-01T00:39:09.086Z,39.83
2022-12-01T00:41:37.038Z,43.47
2022-12-01T00:44:05.508Z,40.47
2022-12-01T00:46:33.530Z,37.37
2022-12-01T00:49:01.777Z,39.03
2022-12-01T00:51:29.765Z,38.00
2022-12-01T00:53:57.656Z,38.83
2022-12-01T00:56:26.936Z,35.97
2022-12-01T00:58:54.856Z,38.10
2022-12-01T01:01:22.855Z,34.27
2022-12-01T01:03:50.906Z,42.17
2022-12-01T01:06:19.005Z,39.73
2022-12-01T01:08:46.886Z,37.23
2022-12-01T01:11:14.822Z,37.63
2022-12-01T01:13:44.110Z,37.83
2022-12-01T01:16:16.102Z,38.40
2022-12-01T01:18:44.105Z,40.00
2022-12-01T01:21:15.304Z,34.87
2022-12-01T01:23:43.417Z,37.50
2022-12-01T01:26:15.017Z,40.43
2022-12-01T01:28:44.744Z,42.50
2022-12-01T01:31:14.425Z,43.03
2022-12-01T01:33:42.752Z,47.87
2022-12-01T01:36:11.265Z,43.70
2022-12-01T01:38:39.179Z,46.77
2022-12-01T01:41:08.268Z,47.77
2022-12-01T01:43:45.939Z,45.37
2022-12-01T01:46:16.406Z,49.13
2022-12-01T01:48:49.074Z,51.20
2022-12-01T01:51:20.526Z,53.97
2022-12-01T01:53:50.157Z,49.10
2022-12-01T01:56:18.261Z,43.37
2022-12-01T01:58:48.074Z,45.33
2022-12-01T02:01:15.993Z,51.40
2022-12-01T02:03:44.768Z,46.47
2022-12-01T02:06:13.678Z,49.27
2022-12-01T02:08:41.516Z,50.90
2022-12-01T02:11:34.510Z,52.60
2022-12-01T02:14:10.589Z,58.50
2022-12-01T02:16:47.822Z,51.63
2022-12-01T02:19:43.534Z,53.23
2022-12-01T02:22:24.168Z,52.23
2022-12-01T02:25:28.631Z,51.10
2022-12-01T02:28:33.924Z,54.93
2022-12-01T02:31:10.545Z,54.37
2022-12-01T02:33:44.855Z,55.67
2022-12-01T02:36:20.815Z,51.80
2022-12-01T02:38:55.333Z,50.63
2022-12-01T02:41:29.492Z,49.00
2022-12-01T02:44:04.213Z,50.70
2022-12-01T02:46:38.370Z,56.50
2022-12-01T02:49:09.685Z,57.93
2022-12-01T02:51:39.413Z,48.00
2022-12-01T02:54:07.619Z,52.30
2022-12-01T02:56:35.641Z,49.20
2022-12-01T02:59:03.674Z,48.50
2022-12-01T03:01:45.021Z,49.30
2022-12-01T03:04:30.388Z,53.50
2022-12-01T03:07:08.247Z,53.40
2022-12-01T03:09:48.066Z,49.70
2022-12-01T03:12:24.462Z,50.80
2022-12-01T03:15:02.072Z,52.73
2022-12-01T03:17:38.241Z,56.33
2022-12-01T03:20:11.685Z,54.33
2022-12-01T03:22:45.050Z,51.90
2022-12-01T03:25:14.282Z,60.50
2022-12-01T03:28:00.901Z,53.67
2022-12-01T03:30:36.595Z,56.57
2022-12-01T03:33:10.653Z,51.30
2022-12-01T03:35:43.650Z,50.73
2022-12-01T03:38:18.355Z,53.33
2022-12-01T03:40:49.014Z,57.73
2022-12-01T03:43:29.710Z,59.47
2022-12-01T03:46:05.856Z,53.77
2022-12-01T03:48:35.498Z,54.90
2022-12-01T03:51:12.692Z,54.13
2022-12-01T03:53:50.109Z,53.47
2022-12-01T03:56:21.374Z,54.77
2022-12-01T03:58:52.317Z,53.97
2022-12-01T04:01:22.249Z,55.83
2022-12-01T04:03:51.598Z,58.43
2022-12-01T04:06:19.495Z,56.37
2022-12-01T04:08:47.373Z,60.17
2022-12-01T04:11:32.997Z,54.07
2022-12-01T04:14:01.097Z,55.00
2022-12-01T04:16:29.051Z,56.90
2022-12-01T04:18:58.434Z,56.50
2022-12-01T04:21:26.371Z,58.00
2022-12-01T04:24:03.370Z,57.17
2022-12-01T04:26:33.178Z,58.90
2022-12-01T04:29:01.605Z,52.70
2022-12-01T04:31:29.836Z,56.00
2022-12-01T04:34:00.585Z,60.73
2022-12-01T04:36:31.964Z,64.23
2022-12-01T04:39:00.201Z,60.23
2022-12-01T04:41:28.183Z,60.03
2022-12-01T04:43:56.346Z,62.40
2022-12-01T04:46:25.558Z,63.23
2022-12-01T04:48:53.541Z,53.77
2022-12-01T04:51:23.185Z,59.13
2022-12-01T04:53:51.146Z,58.27
2022-12-01T04:56:19.160Z,61.13
2022-12-01T04:58:47.213Z,60.47
2022-12-01T05:01:17.208Z,60.13
2022-12-01T05:03:46.694Z,58.37
2022-12-01T05:06:16.939Z,57.90
2022-12-01T05:08:46.672Z,58.17
2022-12-01T05:11:15.536Z,59.30
2022-12-01T05:13:45.095Z,58.83
2022-12-01T05:16:14.858Z,64.23
2022-12-01T05:18:45.784Z,59.77
2022-12-01T05:21:12.804Z,66.03
2022-12-01T05:23:40.706Z,56.53
2022-12-01T05:26:10.550Z,53.60
2022-12-01T05:28:39.091Z,61.00
2022-12-01T05:31:07.185Z,62.47
2022-12-01T05:33:35.068Z,59.07
2022-12-01T05:36:02.998Z,65.63
2022-12-01T05:38:30.896Z,65.27
2022-12-01T05:40:58.764Z,60.60
2022-12-01T05:43:29.625Z,64.17
2022-12-01T05:45:58.370Z,62.93
2022-12-01T05:48:26.823Z,61.30
2022-12-01T05:50:54.783Z,60.53
2022-12-01T05:53:23.176Z,58.97
2022-12-01T05:55:54.181Z,61.37
2022-12-01T05:58:22.109Z,67.13
2022-12-01T06:00:51.347Z,62.73
2022-12-01T06:03:19.320Z,64.77
2022-12-01T06:05:47.282Z,63.37
2022-12-01T06:08:15.409Z,58.77
2022-12-01T06:10:43.417Z,58.60
2022-12-01T06:13:11.639Z,63.20
2022-12-01T06:15:39.562Z,60.60
2022-12-01T06:18:08.874Z,56.80
2022-12-01T06:20:36.973Z,52.60
2022-12-01T06:23:04.927Z,54.70
2022-12-01T06:25:32.854Z,59.63
2022-12-01T06:28:01.127Z,52.17
2022-12-01T06:30:28.985Z,54.80
2022-12-01T06:32:56.868Z,51.90
2022-12-01T06:35:26.094Z,56.37
2022-12-01T06:37:54.861Z,54.37
2022-12-01T06:40:23.123Z,57.17
2022-12-01T06:42:51.055Z,60.10
2022-12-01T06:45:19.027Z,55.67
2022-12-01T06:47:48.099Z,63.73
2022-12-01T06:50:16.197Z,68.70
2022-12-01T06:52:45.646Z,57.03
2022-12-01T06:55:13.783Z,59.43
2022-12-01T06:57:43.268Z,66.87
2022-12-01T07:00:12.629Z,68.60
2022-12-01T07:02:41.075Z,64.20
2022-12-01T07:05:09.730Z,74.10
2022-12-01T07:07:38.564Z,63.67
2022-12-01T07:10:10.395Z,64.97
2022-12-01T07:12:38.434Z,62.73
2022-12-01T07:15:08.855Z,61.83
2022-12-01T07:17:37.407Z,59.97
2022-12-01T07:20:06.134Z,56.53
2022-12-01T07:22:34.067Z,59.80
2022-12-01T07:25:01.925Z,61.10
2022-12-01T07:27:32.704Z,60.50
2022-12-01T07:30:00.644Z,58.30
2022-12-01T07:32:28.641Z,56.90
2022-12-01T07:34:56.560Z,66.60
2022-12-01T07:37:25.254Z,58.23
2022-12-01T07:39:53.122Z,57.97
2022-12-01T07:42:20.998Z,61.93
2022-12-01T07:44:50.296Z,60.83
2022-12-01T07:47:19.195Z,62.13
2022-12-01T07:49:47.495Z,57.20
2022-12-01T07:52:15.772Z,59.27
2022-12-01T07:54:43.716Z,54.37
2022-12-01T07:57:14.297Z,53.30
2022-12-01T07:59:42.565Z,57.33
2022-12-01T08:02:12.330Z,54.83
2022-12-01T08:04:40.833Z,51.57
2022-12-01T08:07:08.847Z,55.37
2022-12-01T08:09:37.199Z,55.37
2022-12-01T08:12:05.494Z,51.93
2022-12-01T08:14:33.757Z,50.03
2022-12-01T08:17:01.648Z,49.77
2022-12-01T08:19:32.023Z,51.87
2022-12-01T08:21:59.925Z,48.57
2022-12-01T08:24:28.040Z,48.00
2022-12-01T08:26:55.913Z,43.60
2022-12-01T08:29:23.819Z,47.50
2022-12-01T08:31:51.766Z,48.20
2022-12-01T08:34:19.761Z,45.07
2022-12-01T08:36:49.021Z,48.57
2022-12-01T08:39:17.146Z,46.80
2022-12-01T08:41:45.067Z,46.63
2022-12-01T08:44:13.192Z,49.70
2022-12-01T08:46:41.246Z,45.63
2022-12-01T08:49:09.187Z,44.73
2022-12-01T08:51:37.418Z,44.63
2022-12-01T08:54:07.075Z,46.13
2022-12-01T08:56:37.589Z,46.40
2022-12-01T08:59:06.424Z,43.90
2022-12-01T09:01:34.816Z,46.27
2022-12-01T09:04:08.488Z,47.00
2022-12-01T09:06:40.824Z,46.50
2022-12-01T09:09:11.301Z,42.53
2022-12-01T09:11:39.954Z,47.43
2022-12-01T09:14:08.095Z,44.80
2022-12-01T09:16:36.380Z,39.13
2022-12-01T09:19:04.879Z,37.63
2022-12-01T09:21:34.774Z,37.40
2022-12-01T09:24:03.594Z,37.10
2022-12-01T09:26:33.341Z,37.87
2022-12-01T09:29:06.273Z,37.47
2022-12-01T09:31:34.499Z,39.37
2022-12-01T09:34:03.883Z,38.73
2022-12-01T09:36:35.254Z,36.27
2022-12-01T09:39:04.049Z,35.83
2022-12-01T09:41:36.321Z,36.43
2022-12-01T09:44:14.159Z,37.83
2022-12-01T09:46:47.911Z,36.83
2022-12-01T09:49:20.201Z,36.50
2022-12-01T09:51:48.321Z,36.90
2022-12-01T09:54:16.438Z,34.20
2022-12-01T09:56:49.415Z,34.33
2022-12-01T09:59:22.532Z,35.93
2022-12-01T10:01:54.902Z,39.00
2022-12-01T10:04:30.097Z,34.40
2022-12-01T10:07:01.886Z,31.80
2022-12-01T10:09:40.271Z,34.10
2022-12-01T10:12:17.516Z,37.50
2022-12-01T10:14:46.364Z,35.73
2022-12-01T10:17:27.672Z,34.50
2022-12-01T10:20:04.145Z,33.43
2022-12-01T10:22:53.872Z,33.70
2022-12-01T10:25:24.204Z,35.00
2022-12-01T10:28:15.540Z,33.53
2022-12-01T10:30:50.984Z,33.60
2022-12-01T10:33:24.636Z,31.10
2022-12-01T10:35:53.403Z,30.27
2022-12-01T10:38:27.990Z,30.00
2022-12-01T10:40:58.487Z,28.27
2022-12-01T10:43:32.757Z,30.50
2022-12-01T10:46:02.448Z,26.87
2022-12-01T10:48:30.576Z,26.57
2022-12-01T10:51:16.875Z,32.53
2022-12-01T10:53:44.809Z,30.67
2022-12-01T10:56:16.419Z,29.03
2022-12-01T10:58:50.239Z,29.40
2022-12-01T11:01:22.058Z,30.40
2022-12-01T11:03:57.673Z,28.13
2022-12-01T11:06:27.778Z,30.20
2022-12-01T11:08:58.946Z,28.33
2022-12-01T11:11:32.059Z,26.63
2022-12-01T11:14:08.418Z,27.73
2022-12-01T11:16:41.004Z,28.33
2022-12-01T11:19:28.004Z,34.23
2022-12-01T11:21:57.978Z,27.80
2022-12-01T11:24:33.630Z,25.40
2022-12-01T11:27:02.346Z,26.20
2022-12-01T11:29:36.226Z,32.20
2022-12-01T11:32:17.787Z,29.03
2022-12-01T11:34:51.487Z,29.37
2022-12-01T11:37:24.028Z,29.37
2022-12-01T11:39:53.073Z,29.70
2022-12-01T11:42:25.120Z,27.43
2022-12-01T11:44:57.009Z,29.67
2022-12-01T11:47:27.004Z,29.03
2022-12-01T11:49:57.603Z,26.93
2022-12-01T11:52:30.143Z,27.03
2022-12-01T11:55:05.584Z,27.97
2022-12-01T11:57:38.696Z,27.33
2022-12-01T12:00:14.748Z,27.87
2022-12-01T12:02:53.956Z,27.10
2022-12-01T12:05:42.498Z,27.10
2022-12-01T12:08:17.523Z,26.50
2022-12-01T12:10:56.863Z,26.27
2022-12-01T12:13:46.041Z,28.30
2022-12-01T12:16:26.292Z,29.17
2022-12-01T12:19:10.318Z,30.00
2022-12-01T12:21:45.870Z,28.53
2022-12-01T12:24:29.369Z,28.47
2022-12-01T12:27:05.546Z,27.27
2022-12-01T12:29:50.112Z,34.00
2022-12-01T12:32:35.367Z,33.10
2022-12-01T12:35:18.909Z,28.30
2022-12-01T12:37:55.681Z,27.67
2022-12-01T12:40:55.770Z,28.23
2022-12-01T12:43:31.535Z,28.60
2022-12-01T12:46:04.601Z,28.67
2022-12-01T12:49:19.270Z,30.63
2022-12-01T12:51:51.661Z,32.87
2022-12-01T12:54:28.260Z,32.00
2022-12-01T12:57:01.455Z,30.57
2022-12-01T12:59:35.393Z,30.13
2022-12-01T13:02:13.524Z,29.77
2022-12-01T13:04:49.094Z,29.47
2022-12-01T13:07:33.247Z,31.00
2022-12-01T13:10:08.047Z,30.67
2022-12-01T13:12:40.390Z,32.37
2022-12-01T13:15:16.557Z,31.57
2022-12-01T13:17:49.247Z,32.47
2022-12-01T13:20:22.175Z,35.57
2022-12-01T13:22:51.040Z,30.07
2022-12-01T13:25:24.122Z,30.07
2022-12-01T13:27:53.278Z,28.87
2022-12-01T13:30:23.844Z,28.10
2022-12-01T13:32:59.843Z,28.27
2022-12-01T13:35:31.878Z,30.63
2022-12-01T13:38:21.384Z,27.90
2022-12-01T13:40:50.157Z,26.83
2022-12-01T13:43:21.303Z,23.93
2022-12-01T13:45:50.673Z,24.13
2022-12-01T13:48:30.522Z,23.27
2022-12-01T13:51:02.729Z,27.30
2022-12-01T13:53:36.124Z,24.47
2022-12-01T13:56:28.487Z,24.17
2022-12-01T13:59:03.604Z,24.33
2022-12-01T14:01:46.446Z,23.93
2022-12-01T14:04:32.408Z,23.00
2022-12-01T14:07:27.517Z,24.77
2022-12-01T14:09:59.958Z,26.03
2022-12-01T14:12:31.448Z,25.37
2022-12-01T14:15:03.900Z,22.40
2022-12-01T14:17:34.658Z,25.17
2022-12-01T14:20:08.658Z,26.23
2022-12-01T14:22:40.172Z,25.03
2022-12-01T14:25:25.634Z,26.23
2022-12-01T14:27:56.165Z,26.93
2022-12-01T14:31:03.305Z,26.03
2022-12-01T14:33:52.056Z,27.90
2022-12-01T14:36:30.402Z,24.70
2022-12-01T14:39:06.869Z,27.27
2022-12-01T14:41:44.409Z,25.07
2022-12-01T14:44:24.090Z,27.43
2022-12-01T14:46:55.747Z,25.57
2022-12-01T14:49:27.435Z,28.43
2022-12-01T14:52:00.012Z,28.00
2022-12-01T14:54:34.046Z,24.77
2022-12-01T14:57:07.492Z,27.80
2022-12-01T14:59:37.372Z,25.70
2022-12-01T15:02:09.864Z,28.43
2022-12-01T15:05:08.136Z,24.50
2022-12-01T15:07:39.319Z,27.97
2022-12-01T15:10:18.122Z,29.10
2022-12-01T15:12:46.341Z,29.20
2022-12-01T15:15:23.578Z,27.07
2022-12-01T15:17:53.003Z,26.07
2022-12-01T15:20:33.996Z,25.93
2022-12-01T15:23:08.937Z,28.57
2022-12-01T15:25:38.354Z,29.73
2022-12-01T15:28:14.791Z,30.07
2022-12-01T15:30:44.466Z,29.63
2022-12-01T15:33:25.539Z,30.00
2022-12-01T15:35:56.025Z,33.20
2022-12-01T15:38:32.149Z,38.20
2022-12-01T15:43:56.990Z,26.70
2022-12-01T15:46:29.668Z,29.20
2022-12-01T15:49:17.946Z,28.07
2022-12-01T15:51:46.768Z,28.90
2022-12-01T15:54:21.530Z,31.07
2022-12-01T15:56:55.214Z,29.90
2022-12-01T15:59:29.795Z,29.93
2022-12-01T16:01:58.198Z,29.37
2022-12-01T16:04:29.055Z,28.80
2022-12-01T16:06:59.804Z,27.37
2022-12-01T16:09:33.156Z,26.20
2022-12-01T16:12:07.572Z,27.93
2022-12-01T16:14:36.077Z,29.43
2022-12-01T16:17:05.381Z,26.57
2022-12-01T16:19:35.958Z,26.60
2022-12-01T16:22:16.551Z,26.20
2022-12-01T16:24:48.565Z,27.73
2022-12-01T16:27:23.455Z,38.17
2022-12-01T16:29:53.572Z,29.07
2022-12-01T16:32:27.983Z,29.67
2022-12-01T16:34:55.980Z,29.27
2022-12-01T16:37:24.014Z,27.60
2022-12-01T16:39:51.896Z,25.93
2022-12-01T16:42:22.622Z,26.93
2022-12-01T16:44:51.686Z,27.17
2022-12-01T16:47:22.819Z,29.17
2022-12-01T16:49:51.019Z,29.70
2022-12-01T16:55:25.620Z,31.50
2022-12-01T16:57:55.326Z,28.93
2022-12-01T17:00:23.938Z,31.17
2022-12-01T17:02:52.751Z,29.47
2022-12-01T17:05:20.801Z,29.90
2022-12-01T17:07:48.937Z,30.73
2022-12-01T17:10:17.675Z,30.10
2022-12-01T17:12:45.577Z,33.27
2022-12-01T17:15:14.921Z,32.40
2022-12-01T17:17:42.860Z,30.97
2022-12-01T17:20:11.805Z,30.30
2022-12-01T17:22:39.954Z,33.50
2022-12-01T17:25:09.679Z,32.13
2022-12-01T17:27:37.945Z,31.47
2022-12-01T17:30:06.980Z,32.47
2022-12-01T17:32:36.428Z,33.03
2022-12-01T17:35:04.852Z,32.30
2022-12-01T17:37:32.925Z,32.83
2022-12-01T17:40:00.818Z,33.37
2022-12-01T17:42:31.131Z,38.67
2022-12-01T17:44:59.225Z,32.67
2022-12-01T17:47:27.798Z,38.13
2022-12-01T17:49:57.056Z,38.40
2022-12-01T17:52:28.332Z,38.47
2022-12-01T17:54:57.021Z,35.10
2022-12-01T17:57:25.041Z,35.17
2022-12-01T17:59:53.120Z,32.53
2022-12-01T18:02:21.198Z,34.47
2022-12-01T18:04:49.862Z,39.43
2022-12-01T18:07:19.542Z,32.60
2022-12-01T18:09:47.737Z,36.40
2022-12-01T18:12:15.697Z,33.47
2022-12-01T18:14:43.652Z,36.23
2022-12-01T18:17:11.605Z,38.97
2022-12-01T18:19:40.473Z,33.70
2022-12-01T18:22:08.362Z,36.83
2022-12-01T18:24:37.756Z,36.80
2022-12-01T18:27:05.758Z,39.87
2022-12-01T18:29:33.964Z,35.63
2022-12-01T18:32:05.631Z,38.07
2022-12-01T18:34:33.943Z,40.73
2022-12-01T18:37:03.082Z,39.40
2022-12-01T18:39:30.977Z,36.60
2022-12-01T18:42:00.269Z,38.30
2022-12-01T18:44:28.403Z,40.40
2022-12-01T18:46:57.722Z,37.67
2022-12-01T18:49:25.794Z,41.27
2022-12-01T18:51:54.017Z,40.87
2022-12-01T18:54:22.032Z,40.47
2022-12-01T18:56:52.601Z,36.10
2022-12-01T18:59:22.736Z,41.03
2022-12-01T19:01:50.747Z,41.80
2022-12-01T19:04:19.191Z,41.87
2022-12-01T19:06:47.251Z,41.33
2022-12-01T19:09:16.740Z,42.97
2022-12-01T19:11:44.991Z,38.57
2022-12-01T19:14:16.515Z,43.10
2022-12-01T19:16:46.620Z,43.00
2022-12-01T19:19:14.724Z,47.07
2022-12-01T19:21:42.963Z,44.13
2022-12-01T19:24:10.945Z,43.83
2022-12-01T19:26:39.178Z,42.87
2022-12-01T19:29:07.133Z,43.50
2022-12-01T19:31:35.203Z,40.13
2022-12-01T19:34:04.814Z,43.37
2022-12-01T19:36:32.936Z,41.03
2022-12-01T19:39:04.370Z,43.40
2022-12-01T19:41:35.165Z,45.80
2022-12-01T19:44:03.213Z,46.77
2022-12-01T19:46:31.151Z,43.60
2022-12-01T19:49:01.208Z,42.03
2022-12-01T19:51:32.467Z,44.47
2022-12-01T19:54:00.540Z,44.90
2022-12-01T19:56:29.517Z,45.30
2022-12-01T19:58:58.070Z,43.33
2022-12-01T20:01:27.051Z,42.77
2022-12-01T20:03:55.849Z,43.73
2022-12-01T20:06:27.278Z,48.83
2022-12-01T20:08:58.683Z,42.70
2022-12-01T20:11:29.592Z,44.43
2022-12-01T20:13:57.530Z,41.60
2022-12-01T20:16:27.646Z,42.93
2022-12-01T20:18:56.163Z,44.33
2022-12-01T20:21:25.853Z,49.23
2022-12-01T20:23:59.186Z,49.43
2022-12-01T20:26:31.948Z,45.93
2022-12-01T20:29:02.730Z,47.17
2022-12-01T20:31:32.814Z,46.67
2022-12-01T20:34:02.557Z,45.63
2022-12-01T20:36:30.998Z,41.63
2022-12-01T20:39:00.593Z,47.13
2022-12-01T20:41:28.589Z,44.90
2022-12-01T20:43:56.482Z,45.37
2022-12-01T20:46:24.726Z,46.23
2022-12-01T20:48:52.808Z,38.90
2022-12-01T20:51:20.777Z,47.77
2022-12-01T20:54:12.316Z,42.90
2022-12-01T20:56:38.112Z,43.77
2022-12-01T20:59:07.318Z,41.43
2022-12-01T21:01:35.883Z,42.73
2022-12-01T21:04:04.049Z,41.67
2022-12-01T21:06:32.194Z,45.17
2022-12-01T21:09:00.608Z,42.47
2022-12-01T21:11:44.501Z,44.90
2022-12-01T21:14:18.771Z,45.23
2022-12-01T21:16:49.305Z,43.53
2022-12-01T21:19:24.925Z,42.90
2022-12-01T21:21:52.876Z,45.27
2022-12-01T21:24:22.273Z,42.70
2022-12-01T21:26:54.860Z,43.47
2022-12-01T21:29:25.858Z,45.80
2022-12-01T21:31:55.470Z,42.03
2022-12-01T21:34:26.555Z,39.27
2022-12-01T21:36:57.358Z,43.77
2022-12-01T21:39:26.424Z,45.97
2022-12-01T21:41:57.274Z,45.07
2022-12-01T21:44:33.448Z,43.37
2022-12-01T21:47:14.360Z,37.73
2022-12-01T21:49:43.675Z,44.93
2022-12-01T21:52:16.244Z,44.83
2022-12-01T21:54:44.215Z,41.27
2022-12-01T21:57:30.214Z,40.73
2022-12-01T22:00:24.102Z,39.83
2022-12-01T22:03:06.794Z,43.20
2022-12-01T22:05:39.412Z,41.77
2022-12-01T22:08:18.040Z,41.17
2022-12-01T22:10:57.716Z,42.60
2022-12-01T22:13:28.285Z,42.07
2022-12-01T22:15:58.247Z,42.30
2022-12-01T22:18:32.923Z,42.10
2022-12-01T22:21:10.923Z,45.07
2022-12-01T22:23:41.455Z,43.10
2022-12-01T22:26:18.732Z,43.27
2022-12-01T22:28:48.973Z,43.60
2022-12-01T22:31:23.525Z,38.93
2022-12-01T22:34:02.681Z,40.77
2022-12-01T22:36:35.272Z,41.83
2022-12-01T22:39:13.598Z,40.73
2022-12-01T22:41:43.421Z,44.37
2022-12-01T22:44:15.344Z,36.33
2022-12-01T22:46:46.596Z,37.83
2022-12-01T22:49:20.123Z,42.53
2022-12-01T22:51:50.268Z,42.53
2022-12-01T22:54:31.321Z,38.90
2022-12-01T22:57:17.497Z,41.70
2022-12-01T22:59:47.687Z,42.57
2022-12-01T23:02:22.478Z,40.17
2022-12-01T23:04:53.267Z,44.63
2022-12-01T23:07:32.847Z,41.17
2022-12-01T23:10:07.113Z,46.43
2022-12-01T23:12:36.911Z,43.73
2022-12-01T23:15:23.628Z,43.13
2022-12-01T23:17:53.151Z,45.93
2022-12-01T23:20:32.315Z,44.73
2022-12-01T23:23:02.367Z,46.30
2022-12-01T23:25:30.656Z,54.90
2022-12-01T23:28:01.349Z,50.00
2022-12-01T23:30:29.418Z,48.90
2022-12-01T23:33:10.798Z,51.03
2022-12-01T23:35:42.553Z,53.07
2022-12-01T23:38:16.545Z,50.73
2022-12-01T23:40:44.643Z,50.07
2022-12-01T23:43:19.779Z,53.60
2022-12-01T23:45:48.663Z,56.07
2022-12-01T23:48:23.655Z,52.57
2022-12-01T23:50:54.463Z,50.67
2022-12-01T23:53:28.428Z,51.90
2022-12-01T23:55:57.801Z,49.00
2022-12-01T23:58:25.798Z,51.57
